Woodstock, NH (03293)

8:05 PM EST on January 28, 2015 (GMT -0500)
Lincoln, NH | Change Station
CLOSE
Current Station
Personal Weather Station
Location: Lincoln, NH
Elevation: 860 ft
Nearby Weather Stations

Elev 860 ft 44.05 °N, 71.67 °W | Updated 0 second ago

Clear
Clear
14.3 °F
Feels Like 8 °F
N
4.0
Wind Variable Wind from WSW
Gusts 10.0 mph

Today
High -- | Low -- °F
--% Chance of Precip.
Yesterday
High -- | Low -- °F
Precip. -- in
7:08 AM 4:51 PM
Waxing Gibbous, 69% visible
Pressure 30.16 in
Visibility 10.0 miles
Clouds Clear
Windchill 8 °F
Dew Point -3 °F
Humidity 46%
Rainfall 0.00 in
Snow Depth Not available.
UV 0 out of 12
Pollen .10 out of 12
Air Quality Not available.
Flu Activity Not available.
METAR K1P1 290055Z AUTO 28010G16KT 10SM CLR M09/M18 A3016 RMK AO2 T10921177

More Conditions Fewer Conditions

Pressure 30.16 in
Visibility 10.0 miles
Clouds Clear
Windchill 8 °F
Dew Point -3 °F
Humidity 46%
Rainfall 0.00 in
Snow Depth Not available.
UV 0 out of 12
Pollen .10 out of 12
Air Quality Not available.
Flu Activity Not available.
METAR K1P1 290055Z AUTO 28010G16KT 10SM CLR M09/M18 A3016 RMK AO2 T10921177

More Conditions Fewer Conditions

10-Day Weather Forecast

Almanac

Astronomy

Jan. 28, 2015 Rise Set
Actual Time
Civil Twilight
Nautical Twilight
Astronomical Twilight
Moon
Length of Visible Light
Length of Day
Tomorrow will be .
, % of the Moon is Illuminated

Today's Extremes

State Highs State Lows

Community

WunderPhotos

Upload Photos

1,791,312 photos uploaded!

WunderBlogs® & News

Nearby

Air Quality

  Air Quality AQ Index Pollutant
Not available.

Snow Depth

Station Depth Elevation

Earthquake Activity

City Distance Mag. Time & Date
Minimum magnitude displayed is 2.5.

Coastal Water Temperatures

Place Temperature

Nearby Weather Stations